DW9615 Home Hill AU current weather conditions

sailwx.info

Wind from 034 at 6 knots gusting 11

Air temperature 31.7° C
Dewpoint 22.6° C

Last reported at 2017-Feb-22 02:51 UTC.
Time now 2017-Feb-22 04:04 UTC

Location: S 19°40' E 147°25'.
View on Google Maps.

See reports from other nearby stations

  
Tides and Currents Weather Stations Pressure Air Temp Water Temp Dewpoint Dewpoint Depression Visibility Wind Speed Wind Dir Waves Ship Positions
date/time (UTC)wind fromknots sea level pressurealtimeterstation pressurevisibilityair tempwater tempwave heightnotes
2017-Feb-22 03:52 048 6 gusting 13 31.7
2017-Feb-22 03:37 112 5 gusting 10 31.7
2017-Feb-22 03:21 079 4 gusting 11 31.7
2017-Feb-22 03:06 083 4 gusting 10 31.7
2017-Feb-22 02:51 034 6 gusting 11 31.7
2017-Feb-22 02:36 035 4 gusting 11 31.7
2017-Feb-22 02:21 077 4 gusting 11 31.7
2017-Feb-22 02:06 036 6 gusting 13 31.7
2017-Feb-22 01:51 077 6 gusting 10 32.2
2017-Feb-22 01:36 054 3 gusting 10 32.2
2017-Feb-22 01:21 077 2 gusting 9 32.2
2017-Feb-22 01:06 093 5 gusting 11 31.7
2017-Feb-22 00:51 131 1 gusting 6 31.7
2017-Feb-22 00:36 079 0 gusting 6 30.6
2017-Feb-22 00:21 147 2 gusting 6 30.6
2017-Feb-22 00:06 076 1 gusting 6 30.6
2017-Feb-21 23:51 142 1 gusting 6 30.0
2017-Feb-21 23:36 136 2 gusting 7 30.0
2017-Feb-21 23:21 081 1 gusting 6 30.6
2017-Feb-21 23:06 136 1 gusting 5 30.0
2017-Feb-21 22:51 093 0 gusting 6 29.4
2017-Feb-21 22:36 111 1 gusting 6 28.9
2017-Feb-21 22:21 154 1 gusting 5 28.3
2017-Feb-21 22:06 082 0 gusting 3 27.8
2017-Feb-21 21:51 114 1 gusting 4 27.2
2017-Feb-21 21:36 075 1 gusting 3 27.2
2017-Feb-21 21:21 110 26.7
2017-Feb-21 21:05 125 25.6
2017-Feb-21 20:50 089 24.4
2017-Feb-21 20:35 085 23.9
2017-Feb-21 20:21 085 23.3
2017-Feb-21 20:05 085 23.3
2017-Feb-21 19:50 083 23.3
2017-Feb-21 19:35 083 23.3
2017-Feb-21 19:20 081 23.9
2017-Feb-21 19:05 081 23.9
2017-Feb-21 18:50 081 23.9
2017-Feb-21 18:35 081 23.9
2017-Feb-21 18:20 080 23.9
2017-Feb-21 17:50 080 23.9
2017-Feb-21 17:35 067 23.9
2017-Feb-21 17:20 040 23.9
2017-Feb-21 17:05 039 23.9
2017-Feb-21 16:50 039 23.9
2017-Feb-21 16:35 039 23.9
2017-Feb-21 16:20 039 23.9
2017-Feb-21 16:05 038 24.4
2017-Feb-21 15:50 038 24.4
2017-Feb-21 15:35 038 24.4
2017-Feb-21 15:20 038 24.4
2017-Feb-21 15:05 038 25.0
2017-Feb-21 14:50 037 25.0
2017-Feb-21 14:35 037 25.0
2017-Feb-21 14:20 037 25.0
2017-Feb-21 14:05 037 25.6
2017-Feb-21 13:50 037 25.6
2017-Feb-21 13:35 037 25.6
2017-Feb-21 13:20 037 26.1
2017-Feb-21 13:05 037 26.1
2017-Feb-21 12:50 037 26.1
2017-Feb-21 12:35 037 26.7
2017-Feb-21 12:20 037 26.7
2017-Feb-21 12:05 037 26.7
2017-Feb-21 11:50 045 1 gusting 3 27.2
2017-Feb-21 11:35 040 1 gusting 3 27.2
2017-Feb-21 11:20 039 0 gusting 4 27.2
2017-Feb-21 11:05 044 2 gusting 5 27.2
2017-Feb-21 10:50 035 1 gusting 5 27.2
2017-Feb-21 10:35 045 0 gusting 3 27.2
2017-Feb-21 10:19 034 1 gusting 4 27.2
2017-Feb-21 10:04 053 1 gusting 4 27.8
2017-Feb-21 09:50 042 2 gusting 5 27.8
2017-Feb-21 09:34 038 1 gusting 4 27.8
2017-Feb-21 09:19 057 2 gusting 6 27.8
2017-Feb-21 09:04 056 2 gusting 6 28.3
2017-Feb-21 08:49 069 1 gusting 8 28.3
2017-Feb-21 08:34 045 4 gusting 9 28.3
2017-Feb-21 08:19 062 4 gusting 10 28.3
2017-Feb-21 08:04 035 4 gusting 10 28.9
2017-Feb-21 07:49 062 6 gusting 8 28.9
2017-Feb-21 07:34 077 4 gusting 10 28.9
2017-Feb-21 07:19 050 5 gusting 9 29.4
2017-Feb-21 07:04 052 4 gusting 10 30.0
2017-Feb-21 06:49 082 3 gusting 11 29.4
2017-Feb-21 06:34 041 4 gusting 12 30.0
2017-Feb-21 06:19 056 7 gusting 13 30.0
2017-Feb-21 06:04 064 5 gusting 12 30.0
2017-Feb-21 05:49 071 5 gusting 13 30.0
2017-Feb-21 05:34 042 5 gusting 9 30.6
2017-Feb-21 05:19 068 7 gusting 11 30.6
2017-Feb-21 05:04 037 4 gusting 8 30.6
2017-Feb-21 04:49 045 2 gusting 6 30.0
2017-Feb-21 04:34 071 30.0
2017-Feb-21 04:19 042 1 gusting 9 30.0
2017-Feb-21 04:04 032 2 gusting 6 29.4
2017-Feb-21 03:49 037 3 gusting 9 29.4
2017-Feb-21 03:34 021 0 gusting 10 30.0
2017-Feb-21 03:19 058 1 gusting 7 30.0
2017-Feb-21 03:04 048 2 gusting 9 30.0
2017-Feb-21 02:49 044 0 gusting 8 30.6
2017-Feb-21 02:34 054 5 gusting 9 30.6
2017-Feb-21 02:19 019 31.1
2017-Feb-21 02:04 025 1 gusting 6 30.6
2017-Feb-21 01:49 039 30.0
2017-Feb-21 01:34 027 29.4
2017-Feb-21 01:19 031 1 gusting 7 30.0
2017-Feb-21 01:04 034 30.0
2017-Feb-21 00:49 031 30.0
2017-Feb-21 00:34 049 30.6
2017-Feb-21 00:19 051 31.1
2017-Feb-21 00:04 129 30.0
2017-Feb-20 23:49 104 28.9
2017-Feb-20 23:34 105 28.3
2017-Feb-20 23:19 105 27.8
2017-Feb-20 23:04 121 0 gusting 3 27.8
2017-Feb-20 22:49 073 27.8
2017-Feb-20 22:34 071 27.8
2017-Feb-20 22:19 064 27.2
2017-Feb-20 22:04 064 27.8
2017-Feb-20 21:49 071 27.2
2017-Feb-20 21:33 115 26.7
2017-Feb-20 21:18 115 26.1
2017-Feb-20 21:03 121 25.6
2017-Feb-20 20:48 111 25.0
2017-Feb-20 20:33 103 25.0
2017-Feb-20 20:18 106 24.4
2017-Feb-20 20:03 121 24.4
2017-Feb-20 19:48 121 24.4
2017-Feb-20 19:33 121 25.0
2017-Feb-20 19:18 118 25.0
2017-Feb-20 19:03 117 24.4
2017-Feb-20 18:48 343 24.4
2017-Feb-20 18:33 341 24.4
2017-Feb-20 18:18 341 24.4
2017-Feb-20 18:03 339 24.4
2017-Feb-20 17:48 337 25.0
2017-Feb-20 17:33 337 25.0
2017-Feb-20 17:18 337 25.0
2017-Feb-20 17:03 337 25.0
2017-Feb-20 16:48 337 25.0
2017-Feb-20 16:33 337 25.0
2017-Feb-20 16:18 337 25.0
2017-Feb-20 16:03 337 25.0
2017-Feb-20 15:48 337 25.0
2017-Feb-20 15:33 337 25.0
2017-Feb-20 15:18 337 25.6
2017-Feb-20 15:03 337 25.6
2017-Feb-20 14:48 337 26.1
2017-Feb-20 14:33 335 26.7
2017-Feb-20 14:18 335 26.7
2017-Feb-20 14:03 335 26.7
2017-Feb-20 13:48 335 26.7
2017-Feb-20 13:33 335 26.7
2017-Feb-20 13:18 334 26.7
2017-Feb-20 13:03 333 26.7
2017-Feb-20 12:48 333 26.7
2017-Feb-20 12:33 333 26.7
2017-Feb-20 12:18 333 27.2
2017-Feb-20 12:03 333 27.2
2017-Feb-20 11:48 333 27.2
2017-Feb-20 11:33 333 27.2
2017-Feb-20 11:18 334 27.2
2017-Feb-20 11:02 325 0 gusting 4 27.2
2017-Feb-20 10:48 341 27.2
2017-Feb-20 10:32 349 27.2
2017-Feb-20 10:17 349 27.2
2017-Feb-20 10:02 354 27.2
2017-Feb-20 09:47 049 27.8
2017-Feb-20 09:32 050 27.8
2017-Feb-20 09:17 050 27.8
2017-Feb-20 09:02 055 0 gusting 2 28.3
2017-Feb-20 08:47 051 0 gusting 3 28.3
2017-Feb-20 08:32 029 28.9
2017-Feb-20 08:17 027 28.9
2017-Feb-20 08:03 017 1 gusting 6 29.4
2017-Feb-20 07:47 340 1 gusting 4 30.0
2017-Feb-20 07:33 327 2 gusting 6 30.0
2017-Feb-20 07:17 033 2 gusting 7 30.6
2017-Feb-20 07:02 002 0 gusting 4 30.0
2017-Feb-20 06:47 336 2 gusting 7 30.0
2017-Feb-20 06:32 034 0 gusting 8 30.6
2017-Feb-20 06:17 034 0 gusting 4 31.1
2017-Feb-20 06:02 019 1 gusting 6 31.7
2017-Feb-20 05:47 317 2 gusting 6 31.7
2017-Feb-20 05:32 023 1 gusting 8 31.1
2017-Feb-20 05:17 324 1 gusting 10 31.1
2017-Feb-20 05:02 348 3 gusting 8 31.7
2017-Feb-20 04:47 327 1 gusting 6 31.7
2017-Feb-20 04:32 355 1 gusting 6 31.7
2017-Feb-20 04:17 042 2 gusting 4 31.7
2017-Feb-20 04:02 030 0 gusting 4 31.7